sensor_id;sensor_type;location;lat;lon;timestamp;temperature;humidity
14252;DHT22;7210;51.502;10.722;2023-08-08T00:00:37;9.60;99.90
14252;DHT22;7210;51.502;10.722;2023-08-08T00:03:05;9.50;99.90
14252;DHT22;7210;51.502;10.722;2023-08-08T00:05:36;9.50;99.90
14252;DHT22;7210;51.502;10.722;2023-08-08T00:08:04;9.50;99.90
14252;DHT22;7210;51.502;10.722;2023-08-08T00:10:37;9.50;99.90
14252;DHT22;7210;51.502;10.722;2023-08-08T00:13:06;9.60;99.90
14252;DHT22;7210;51.502;10.722;2023-08-08T00:15:35;9.70;99.90
14252;DHT22;7210;51.502;10.722;2023-08-08T00:18:08;9.80;99.90
14252;DHT22;7210;51.502;10.722;2023-08-08T00:20:38;9.90;99.90
14252;DHT22;7210;51.502;10.722;2023-08-08T00:23:07;9.90;99.90
14252;DHT22;7210;51.502;10.722;2023-08-08T00:25:36;9.90;99.90
14252;DHT22;7210;51.502;10.722;2023-08-08T00:28:05;9.90;99.90
14252;DHT22;7210;51.502;10.722;2023-08-08T00:30:33;9.90;99.90
14252;DHT22;7210;51.502;10.722;2023-08-08T00:33:03;9.90;99.90
14252;DHT22;7210;51.502;10.722;2023-08-08T00:35:32;9.90;99.90
14252;DHT22;7210;51.502;10.722;2023-08-08T00:38:01;10.00;99.90
14252;DHT22;7210;51.502;10.722;2023-08-08T00:40:29;10.00;99.90
14252;DHT22;7210;51.502;10.722;2023-08-08T00:42:58;10.00;99.90
14252;DHT22;7210;51.502;10.722;2023-08-08T00:45:31;9.90;99.90
14252;DHT22;7210;51.502;10.722;2023-08-08T00:47:59;9.90;99.90
14252;DHT22;7210;51.502;10.722;2023-08-08T00:50:27;9.90;99.90
14252;DHT22;7210;51.502;10.722;2023-08-08T00:52:57;9.90;99.90
14252;DHT22;7210;51.502;10.722;2023-08-08T00:55:25;9.90;99.90
14252;DHT22;7210;51.502;10.722;2023-08-08T00:57:53;9.80;99.90
14252;DHT22;7210;51.502;10.722;2023-08-08T01:00:22;9.80;99.90
14252;DHT22;7210;51.502;10.722;2023-08-08T01:02:50;9.80;99.90
14252;DHT22;7210;51.502;10.722;2023-08-08T01:05:19;9.80;99.90
14252;DHT22;7210;51.502;10.722;2023-08-08T01:07:52;9.70;99.90
14252;DHT22;7210;51.502;10.722;2023-08-08T01:10:26;9.70;99.90
14252;DHT22;7210;51.502;10.722;2023-08-08T01:13:05;9.60;99.90
14252;DHT22;7210;51.502;10.722;2023-08-08T01:15:38;9.70;99.90
14252;DHT22;7210;51.502;10.722;2023-08-08T01:18:08;9.60;99.90
14252;DHT22;7210;51.502;10.722;2023-08-08T01:20:41;9.60;99.90
14252;DHT22;7210;51.502;10.722;2023-08-08T01:23:14;9.60;99.90
14252;DHT22;7210;51.502;10.722;2023-08-08T01:25:48;9.60;99.90
14252;DHT22;7210;51.502;10.722;2023-08-08T01:28:19;9.50;99.90
14252;DHT22;7210;51.502;10.722;2023-08-08T01:30:48;9.50;99.90
14252;DHT22;7210;51.502;10.722;2023-08-08T01:33:17;9.50;99.90
14252;DHT22;7210;51.502;10.722;2023-08-08T01:35:47;9.40;99.90
14252;DHT22;7210;51.502;10.722;2023-08-08T01:38:28;9.40;99.90
14252;DHT22;7210;51.502;10.722;2023-08-08T01:41:00;9.40;99.90
14252;DHT22;7210;51.502;10.722;2023-08-08T01:43:30;9.50;99.90
14252;DHT22;7210;51.502;10.722;2023-08-08T01:46:00;9.50;99.90
14252;DHT22;7210;51.502;10.722;2023-08-08T01:48:30;9.50;99.90
14252;DHT22;7210;51.502;10.722;2023-08-08T01:50:58;9.50;99.90
14252;DHT22;7210;51.502;10.722;2023-08-08T01:53:26;9.50;99.90
14252;DHT22;7210;51.502;10.722;2023-08-08T01:55:54;9.50;99.90
14252;DHT22;7210;51.502;10.722;2023-08-08T01:58:23;9.50;99.90
14252;DHT22;7210;51.502;10.722;2023-08-08T02:00:51;9.50;99.90
14252;DHT22;7210;51.502;10.722;2023-08-08T02:03:22;9.50;99.90
14252;DHT22;7210;51.502;10.722;2023-08-08T02:05:50;9.50;99.90
14252;DHT22;7210;51.502;10.722;2023-08-08T02:08:18;9.50;99.90
14252;DHT22;7210;51.502;10.722;2023-08-08T02:10:46;9.50;99.90
14252;DHT22;7210;51.502;10.722;2023-08-08T02:13:13;9.50;99.90
14252;DHT22;7210;51.502;10.722;2023-08-08T02:15:42;9.50;99.90
14252;DHT22;7210;51.502;10.722;2023-08-08T02:18:10;9.50;99.90
14252;DHT22;7210;51.502;10.722;2023-08-08T02:20:38;9.40;99.90
14252;DHT22;7210;51.502;10.722;2023-08-08T02:23:05;9.40;99.90
14252;DHT22;7210;51.502;10.722;2023-08-08T02:25:33;9.40;99.90
14252;DHT22;7210;51.502;10.722;2023-08-08T02:28:03;9.40;99.90
14252;DHT22;7210;51.502;10.722;2023-08-08T02:30:31;9.40;99.90
14252;DHT22;7210;51.502;10.722;2023-08-08T02:32:59;9.30;99.90
14252;DHT22;7210;51.502;10.722;2023-08-08T02:35:27;9.30;99.90
14252;DHT22;7210;51.502;10.722;2023-08-08T02:37:55;9.30;99.90
14252;DHT22;7210;51.502;10.722;2023-08-08T02:40:23;9.30;99.90
14252;DHT22;7210;51.502;10.722;2023-08-08T02:42:52;9.30;99.90
14252;DHT22;7210;51.502;10.722;2023-08-08T02:45:20;9.40;99.90
14252;DHT22;7210;51.502;10.722;2023-08-08T02:47:48;9.40;99.90
14252;DHT22;7210;51.502;10.722;2023-08-08T02:50:16;9.50;99.90
14252;DHT22;7210;51.502;10.722;2023-08-08T02:52:45;9.60;99.90
14252;DHT22;7210;51.502;10.722;2023-08-08T02:55:12;9.60;99.90
14252;DHT22;7210;51.502;10.722;2023-08-08T02:57:42;9.70;99.90
14252;DHT22;7210;51.502;10.722;2023-08-08T03:00:10;9.80;99.90
14252;DHT22;7210;51.502;10.722;2023-08-08T03:02:41;9.80;99.90
14252;DHT22;7210;51.502;10.722;2023-08-08T03:05:09;9.90;99.90
14252;DHT22;7210;51.502;10.722;2023-08-08T03:07:38;10.00;99.90
14252;DHT22;7210;51.502;10.722;2023-08-08T03:10:08;10.00;99.90
14252;DHT22;7210;51.502;10.722;2023-08-08T03:12:38;10.10;99.90
14252;DHT22;7210;51.502;10.722;2023-08-08T03:15:08;10.10;99.90
14252;DHT22;7210;51.502;10.722;2023-08-08T03:17:39;10.10;99.90
14252;DHT22;7210;51.502;10.722;2023-08-08T03:20:10;10.30;99.90
14252;DHT22;7210;51.502;10.722;2023-08-08T03:22:40;10.30;99.90
14252;DHT22;7210;51.502;10.722;2023-08-08T03:25:09;10.30;99.90
14252;DHT22;7210;51.502;10.722;2023-08-08T03:27:38;10.30;99.90
14252;DHT22;7210;51.502;10.722;2023-08-08T03:30:12;10.30;99.90
14252;DHT22;7210;51.502;10.722;2023-08-08T03:32:42;10.30;99.90
14252;DHT22;7210;51.502;10.722;2023-08-08T03:35:10;10.40;99.90
14252;DHT22;7210;51.502;10.722;2023-08-08T03:37:42;10.40;99.90
14252;DHT22;7210;51.502;10.722;2023-08-08T03:40:12;10.40;99.90
14252;DHT22;7210;51.502;10.722;2023-08-08T03:42:40;10.40;99.90
14252;DHT22;7210;51.502;10.722;2023-08-08T03:45:11;10.40;99.90
14252;DHT22;7210;51.502;10.722;2023-08-08T03:47:39;10.40;99.90
14252;DHT22;7210;51.502;10.722;2023-08-08T03:50:11;10.50;99.90
14252;DHT22;7210;51.502;10.722;2023-08-08T03:52:46;10.50;99.90
14252;DHT22;7210;51.502;10.722;2023-08-08T03:55:14;10.50;99.90
14252;DHT22;7210;51.502;10.722;2023-08-08T03:57:45;10.50;99.90
14252;DHT22;7210;51.502;10.722;2023-08-08T04:00:14;10.60;99.90
14252;DHT22;7210;51.502;10.722;2023-08-08T04:02:45;10.60;99.90
14252;DHT22;7210;51.502;10.722;2023-08-08T04:05:13;10.70;99.90
14252;DHT22;7210;51.502;10.722;2023-08-08T04:07:40;10.80;99.90
14252;DHT22;7210;51.502;10.722;2023-08-08T04:10:12;10.80;99.90
14252;DHT22;7210;51.502;10.722;2023-08-08T04:12:45;10.90;99.90
14252;DHT22;7210;51.502;10.722;2023-08-08T04:15:14;10.90;99.90
14252;DHT22;7210;51.502;10.722;2023-08-08T04:17:42;10.90;99.90
14252;DHT22;7210;51.502;10.722;2023-08-08T04:20:10;10.90;99.90
14252;DHT22;7210;51.502;10.722;2023-08-08T04:22:38;10.90;99.90
14252;DHT22;7210;51.502;10.722;2023-08-08T04:25:06;10.90;99.90
14252;DHT22;7210;51.502;10.722;2023-08-08T04:27:35;11.00;99.90
14252;DHT22;7210;51.502;10.722;2023-08-08T04:30:03;11.00;99.90
14252;DHT22;7210;51.502;10.722;2023-08-08T04:32:33;11.00;99.90
14252;DHT22;7210;51.502;10.722;2023-08-08T04:35:01;11.10;99.90
14252;DHT22;7210;51.502;10.722;2023-08-08T04:37:28;11.10;99.90
14252;DHT22;7210;51.502;10.722;2023-08-08T04:39:56;11.20;99.90
14252;DHT22;7210;51.502;10.722;2023-08-08T04:42:23;11.20;99.90
14252;DHT22;7210;51.502;10.722;2023-08-08T04:44:52;11.30;99.90
14252;DHT22;7210;51.502;10.722;2023-08-08T04:47:20;11.30;99.90
14252;DHT22;7210;51.502;10.722;2023-08-08T04:49:48;11.30;99.90
14252;DHT22;7210;51.502;10.722;2023-08-08T04:52:15;11.30;99.90
14252;DHT22;7210;51.502;10.722;2023-08-08T04:54:42;11.30;99.90
14252;DHT22;7210;51.502;10.722;2023-08-08T04:57:10;11.40;99.90
14252;DHT22;7210;51.502;10.722;2023-08-08T04:59:38;11.30;99.90
14252;DHT22;7210;51.502;10.722;2023-08-08T05:02:10;11.40;99.90
14252;DHT22;7210;51.502;10.722;2023-08-08T05:04:38;11.50;99.90
14252;DHT22;7210;51.502;10.722;2023-08-08T05:07:06;11.60;99.90
14252;DHT22;7210;51.502;10.722;2023-08-08T05:09:33;11.70;99.90
14252;DHT22;7210;51.502;10.722;2023-08-08T05:12:01;11.70;99.90
14252;DHT22;7210;51.502;10.722;2023-08-08T05:14:28;11.80;99.90
14252;DHT22;7210;51.502;10.722;2023-08-08T05:16:57;11.90;99.90
14252;DHT22;7210;51.502;10.722;2023-08-08T05:19:26;11.90;99.90
14252;DHT22;7210;51.502;10.722;2023-08-08T05:21:54;11.90;99.90
14252;DHT22;7210;51.502;10.722;2023-08-08T05:24:23;12.00;99.90
14252;DHT22;7210;51.502;10.722;2023-08-08T05:26:50;12.10;99.90
14252;DHT22;7210;51.502;10.722;2023-08-08T05:29:19;12.20;99.90
14252;DHT22;7210;51.502;10.722;2023-08-08T05:31:47;12.30;99.90
14252;DHT22;7210;51.502;10.722;2023-08-08T05:34:15;12.40;99.90
14252;DHT22;7210;51.502;10.722;2023-08-08T05:36:46;12.40;99.90
14252;DHT22;7210;51.502;10.722;2023-08-08T05:39:13;12.50;99.90
14252;DHT22;7210;51.502;10.722;2023-08-08T05:41:41;12.50;99.90
14252;DHT22;7210;51.502;10.722;2023-08-08T05:44:08;12.50;99.90
14252;DHT22;7210;51.502;10.722;2023-08-08T05:46:36;12.50;99.90
14252;DHT22;7210;51.502;10.722;2023-08-08T05:49:03;12.60;99.90
14252;DHT22;7210;51.502;10.722;2023-08-08T05:51:32;12.50;99.90
14252;DHT22;7210;51.502;10.722;2023-08-08T05:54:02;12.50;99.90
14252;DHT22;7210;51.502;10.722;2023-08-08T05:56:34;12.60;99.90
14252;DHT22;7210;51.502;10.722;2023-08-08T05:59:03;12.70;99.90
14252;DHT22;7210;51.502;10.722;2023-08-08T06:01:31;12.70;99.90
14252;DHT22;7210;51.502;10.722;2023-08-08T06:03:59;12.80;99.90
14252;DHT22;7210;51.502;10.722;2023-08-08T06:06:27;12.80;99.90
14252;DHT22;7210;51.502;10.722;2023-08-08T06:08:55;12.80;99.90
14252;DHT22;7210;51.502;10.722;2023-08-08T06:11:23;12.90;99.90
14252;DHT22;7210;51.502;10.722;2023-08-08T06:13:51;12.90;99.90
14252;DHT22;7210;51.502;10.722;2023-08-08T06:16:21;13.00;99.90
14252;DHT22;7210;51.502;10.722;2023-08-08T06:18:49;13.10;99.90
14252;DHT22;7210;51.502;10.722;2023-08-08T06:21:17;13.20;99.90
14252;DHT22;7210;51.502;10.722;2023-08-08T06:23:45;13.20;99.90
14252;DHT22;7210;51.502;10.722;2023-08-08T06:26:13;13.20;99.90
14252;DHT22;7210;51.502;10.722;2023-08-08T06:28:42;13.20;99.90
14252;DHT22;7210;51.502;10.722;2023-08-08T06:31:09;13.20;99.90
14252;DHT22;7210;51.502;10.722;2023-08-08T06:33:37;13.30;99.90
14252;DHT22;7210;51.502;10.722;2023-08-08T06:36:06;13.40;99.90
14252;DHT22;7210;51.502;10.722;2023-08-08T06:38:33;13.50;99.90
14252;DHT22;7210;51.502;10.722;2023-08-08T06:41:01;13.60;99.90
14252;DHT22;7210;51.502;10.722;2023-08-08T06:43:30;13.80;99.90
14252;DHT22;7210;51.502;10.722;2023-08-08T06:45:58;13.90;99.90
14252;DHT22;7210;51.502;10.722;2023-08-08T06:48:26;14.00;99.90
14252;DHT22;7210;51.502;10.722;2023-08-08T06:50:56;14.10;1.00
14252;DHT22;7210;51.502;10.722;2023-08-08T06:53:24;14.10;1.00
14252;DHT22;7210;51.502;10.722;2023-08-08T06:55:51;14.10;1.00
14252;DHT22;7210;51.502;10.722;2023-08-08T06:58:19;14.10;1.00
14252;DHT22;7210;51.502;10.722;2023-08-08T07:00:47;14.20;1.00
14252;DHT22;7210;51.502;10.722;2023-08-08T07:03:17;14.20;1.00
14252;DHT22;7210;51.502;10.722;2023-08-08T07:05:45;14.20;1.00
14252;DHT22;7210;51.502;10.722;2023-08-08T07:08:13;14.30;1.00
14252;DHT22;7210;51.502;10.722;2023-08-08T07:10:41;14.40;1.00
14252;DHT22;7210;51.502;10.722;2023-08-08T07:13:08;14.50;1.00
14252;DHT22;7210;51.502;10.722;2023-08-08T07:15:36;14.50;1.00
14252;DHT22;7210;51.502;10.722;2023-08-08T07:18:04;14.50;1.00
14252;DHT22;7210;51.502;10.722;2023-08-08T07:20:33;14.40;1.00
14252;DHT22;7210;51.502;10.722;2023-08-08T07:23:01;14.40;1.00
14252;DHT22;7210;51.502;10.722;2023-08-08T07:25:34;14.30;1.00
14252;DHT22;7210;51.502;10.722;2023-08-08T07:28:02;14.10;1.00
14252;DHT22;7210;51.502;10.722;2023-08-08T07:30:30;14.00;1.40
14252;DHT22;7210;51.502;10.722;2023-08-08T07:32:57;13.90;99.90
14252;DHT22;7210;51.502;10.722;2023-08-08T07:35:25;13.90;99.90
14252;DHT22;7210;51.502;10.722;2023-08-08T07:37:55;14.00;99.90
14252;DHT22;7210;51.502;10.722;2023-08-08T07:40:23;14.00;99.90
14252;DHT22;7210;51.502;10.722;2023-08-08T07:42:52;14.10;1.40
14252;DHT22;7210;51.502;10.722;2023-08-08T07:45:19;14.00;1.40
14252;DHT22;7210;51.502;10.722;2023-08-08T07:47:47;14.10;99.90
14252;DHT22;7210;51.502;10.722;2023-08-08T07:50:16;14.30;99.90
14252;DHT22;7210;51.502;10.722;2023-08-08T07:52:44;14.40;99.90
14252;DHT22;7210;51.502;10.722;2023-08-08T07:55:17;14.50;1.00
14252;DHT22;7210;51.502;10.722;2023-08-08T07:57:45;14.60;1.00
14252;DHT22;7210;51.502;10.722;2023-08-08T08:00:14;14.70;1.00
14252;DHT22;7210;51.502;10.722;2023-08-08T08:02:46;14.90;1.00
14252;DHT22;7210;51.502;10.722;2023-08-08T08:05:14;14.90;1.00
14252;DHT22;7210;51.502;10.722;2023-08-08T08:07:44;15.00;1.00
14252;DHT22;7210;51.502;10.722;2023-08-08T08:10:12;15.00;1.00
14252;DHT22;7210;51.502;10.722;2023-08-08T08:12:43;15.10;1.00
14252;DHT22;7210;51.502;10.722;2023-08-08T08:15:11;15.10;1.00
14252;DHT22;7210;51.502;10.722;2023-08-08T08:17:42;15.10;1.00
14252;DHT22;7210;51.502;10.722;2023-08-08T08:20:13;15.10;1.00
14252;DHT22;7210;51.502;10.722;2023-08-08T08:22:42;15.30;1.00
14252;DHT22;7210;51.502;10.722;2023-08-08T08:25:10;15.20;1.00
14252;DHT22;7210;51.502;10.722;2023-08-08T08:27:42;15.30;1.00
14252;DHT22;7210;51.502;10.722;2023-08-08T08:30:12;15.30;1.00
14252;DHT22;7210;51.502;10.722;2023-08-08T08:32:52;15.40;1.00
14252;DHT22;7210;51.502;10.722;2023-08-08T08:35:20;15.60;1.00
14252;DHT22;7210;51.502;10.722;2023-08-08T08:37:49;15.60;1.00
14252;DHT22;7210;51.502;10.722;2023-08-08T08:40:20;15.70;1.00
14252;DHT22;7210;51.502;10.722;2023-08-08T08:42:53;15.70;1.00
14252;DHT22;7210;51.502;10.722;2023-08-08T08:45:24;15.70;1.00
14252;DHT22;7210;51.502;10.722;2023-08-08T08:47:57;15.70;1.00
14252;DHT22;7210;51.502;10.722;2023-08-08T08:50:30;15.70;1.00
14252;DHT22;7210;51.502;10.722;2023-08-08T08:53:04;15.70;1.00
14252;DHT22;7210;51.502;10.722;2023-08-08T08:55:36;15.60;1.00
14252;DHT22;7210;51.502;10.722;2023-08-08T08:58:06;15.60;1.00
14252;DHT22;7210;51.502;10.722;2023-08-08T09:00:35;15.60;1.00
14252;DHT22;7210;51.502;10.722;2023-08-08T09:03:04;15.70;1.00
14252;DHT22;7210;51.502;10.722;2023-08-08T09:05:36;15.80;1.00
14252;DHT22;7210;51.502;10.722;2023-08-08T09:08:06;15.90;1.00
14252;DHT22;7210;51.502;10.722;2023-08-08T09:10:34;15.90;1.00
14252;DHT22;7210;51.502;10.722;2023-08-08T09:13:02;16.00;1.00
14252;DHT22;7210;51.502;10.722;2023-08-08T09:15:32;15.90;1.00
14252;DHT22;7210;51.502;10.722;2023-08-08T09:18:03;15.90;1.00
14252;DHT22;7210;51.502;10.722;2023-08-08T09:20:31;16.20;1.00
14252;DHT22;7210;51.502;10.722;2023-08-08T09:23:04;16.20;1.00
14252;DHT22;7210;51.502;10.722;2023-08-08T09:25:33;16.30;1.00
14252;DHT22;7210;51.502;10.722;2023-08-08T09:28:09;16.40;1.00
14252;DHT22;7210;51.502;10.722;2023-08-08T09:30:38;16.50;1.00
14252;DHT22;7210;51.502;10.722;2023-08-08T09:33:06;16.40;1.00
14252;DHT22;7210;51.502;10.722;2023-08-08T09:35:34;16.40;1.00
14252;DHT22;7210;51.502;10.722;2023-08-08T09:38:09;16.40;1.00
14252;DHT22;7210;51.502;10.722;2023-08-08T09:40:36;16.60;1.00
14252;DHT22;7210;51.502;10.722;2023-08-08T09:43:07;16.80;1.00
14252;DHT22;7210;51.502;10.722;2023-08-08T09:45:37;16.90;1.00
14252;DHT22;7210;51.502;10.722;2023-08-08T09:48:07;17.20;1.00
14252;DHT22;7210;51.502;10.722;2023-08-08T09:50:35;17.40;1.00
14252;DHT22;7210;51.502;10.722;2023-08-08T09:53:04;17.60;1.00
14252;DHT22;7210;51.502;10.722;2023-08-08T09:55:32;17.80;1.00
14252;DHT22;7210;51.502;10.722;2023-08-08T09:58:02;17.90;1.00
14252;DHT22;7210;51.502;10.722;2023-08-08T10:00:31;17.90;1.00
14252;DHT22;7210;51.502;10.722;2023-08-08T10:03:01;18.00;1.00
14252;DHT22;7210;51.502;10.722;2023-08-08T10:05:29;18.20;1.00
14252;DHT22;7210;51.502;10.722;2023-08-08T10:07:57;18.30;1.00
14252;DHT22;7210;51.502;10.722;2023-08-08T10:10:24;18.30;1.00
14252;DHT22;7210;51.502;10.722;2023-08-08T10:12:53;18.40;1.00
14252;DHT22;7210;51.502;10.722;2023-08-08T10:15:25;18.30;1.00
14252;DHT22;7210;51.502;10.722;2023-08-08T10:17:54;18.50;1.00
14252;DHT22;7210;51.502;10.722;2023-08-08T10:20:27;18.70;1.00
14252;DHT22;7210;51.502;10.722;2023-08-08T10:22:55;18.70;1.00
14252;DHT22;7210;51.502;10.722;2023-08-08T10:25:26;18.50;1.00
14252;DHT22;7210;51.502;10.722;2023-08-08T10:28:05;18.50;1.00
14252;DHT22;7210;51.502;10.722;2023-08-08T10:30:46;18.40;1.00
14252;DHT22;7210;51.502;10.722;2023-08-08T10:33:18;18.40;1.00
14252;DHT22;7210;51.502;10.722;2023-08-08T10:35:59;18.20;1.00
14252;DHT22;7210;51.502;10.722;2023-08-08T10:38:40;18.10;1.00
14252;DHT22;7210;51.502;10.722;2023-08-08T10:41:11;17.80;1.00
14252;DHT22;7210;51.502;10.722;2023-08-08T10:43:48;17.50;1.00
14252;DHT22;7210;51.502;10.722;2023-08-08T10:46:23;17.00;1.00
14252;DHT22;7210;51.502;10.722;2023-08-08T10:48:52;16.80;1.00
14252;DHT22;7210;51.502;10.722;2023-08-08T10:51:22;16.80;1.00
14252;DHT22;7210;51.502;10.722;2023-08-08T10:53:52;17.10;1.00
14252;DHT22;7210;51.502;10.722;2023-08-08T10:56:26;17.40;1.00
14252;DHT22;7210;51.502;10.722;2023-08-08T10:58:53;17.70;1.00
14252;DHT22;7210;51.502;10.722;2023-08-08T11:01:24;18.10;1.00
14252;DHT22;7210;51.502;10.722;2023-08-08T11:03:52;18.20;1.00
14252;DHT22;7210;51.502;10.722;2023-08-08T11:06:23;18.40;1.00
14252;DHT22;7210;51.502;10.722;2023-08-08T11:08:52;18.60;1.00
14252;DHT22;7210;51.502;10.722;2023-08-08T11:11:21;18.70;1.00
14252;DHT22;7210;51.502;10.722;2023-08-08T11:13:52;18.70;1.00
14252;DHT22;7210;51.502;10.722;2023-08-08T11:16:20;19.00;1.00
14252;DHT22;7210;51.502;10.722;2023-08-08T11:18:48;19.20;1.00
14252;DHT22;7210;51.502;10.722;2023-08-08T11:21:16;19.60;1.00
14252;DHT22;7210;51.502;10.722;2023-08-08T11:23:48;19.70;1.00
14252;DHT22;7210;51.502;10.722;2023-08-08T11:26:18;19.80;1.00
14252;DHT22;7210;51.502;10.722;2023-08-08T11:28:50;19.50;1.00
14252;DHT22;7210;51.502;10.722;2023-08-08T11:31:18;19.20;1.00
14252;DHT22;7210;51.502;10.722;2023-08-08T11:33:53;18.90;1.00
14252;DHT22;7210;51.502;10.722;2023-08-08T11:36:23;18.60;1.00
14252;DHT22;7210;51.502;10.722;2023-08-08T11:38:55;18.30;1.00
14252;DHT22;7210;51.502;10.722;2023-08-08T11:41:27;18.10;1.00
14252;DHT22;7210;51.502;10.722;2023-08-08T11:43:56;17.80;1.00
14252;DHT22;7210;51.502;10.722;2023-08-08T11:46:25;17.70;1.00
14252;DHT22;7210;51.502;10.722;2023-08-08T11:48:53;17.60;1.00
14252;DHT22;7210;51.502;10.722;2023-08-08T11:51:21;17.50;1.00
14252;DHT22;7210;51.502;10.722;2023-08-08T11:53:49;17.50;1.00
14252;DHT22;7210;51.502;10.722;2023-08-08T11:56:20;17.40;1.00
14252;DHT22;7210;51.502;10.722;2023-08-08T11:58:49;17.40;1.00
14252;DHT22;7210;51.502;10.722;2023-08-08T12:01:19;17.30;1.00
14252;DHT22;7210;51.502;10.722;2023-08-08T12:03:47;17.30;1.00
14252;DHT22;7210;51.502;10.722;2023-08-08T12:06:16;17.30;1.00
14252;DHT22;7210;51.502;10.722;2023-08-08T12:08:44;17.30;1.00
14252;DHT22;7210;51.502;10.722;2023-08-08T12:11:14;17.30;1.00
14252;DHT22;7210;51.502;10.722;2023-08-08T12:13:45;17.40;1.00
14252;DHT22;7210;51.502;10.722;2023-08-08T12:16:14;17.60;1.00
14252;DHT22;7210;51.502;10.722;2023-08-08T12:18:45;17.80;1.00
14252;DHT22;7210;51.502;10.722;2023-08-08T12:21:15;17.80;1.00
14252;DHT22;7210;51.502;10.722;2023-08-08T12:23:43;17.70;1.00
14252;DHT22;7210;51.502;10.722;2023-08-08T12:26:11;17.80;1.00
14252;DHT22;7210;51.502;10.722;2023-08-08T12:28:39;18.00;1.00
14252;DHT22;7210;51.502;10.722;2023-08-08T12:31:08;18.20;1.00
14252;DHT22;7210;51.502;10.722;2023-08-08T12:33:35;18.00;1.00
14252;DHT22;7210;51.502;10.722;2023-08-08T12:36:03;17.90;1.00
14252;DHT22;7210;51.502;10.722;2023-08-08T12:38:30;17.40;1.00
14252;DHT22;7210;51.502;10.722;2023-08-08T12:41:00;17.00;1.00
14252;DHT22;7210;51.502;10.722;2023-08-08T12:43:28;16.70;1.00
14252;DHT22;7210;51.502;10.722;2023-08-08T12:45:56;16.60;1.00
14252;DHT22;7210;51.502;10.722;2023-08-08T12:48:24;16.70;1.00
14252;DHT22;7210;51.502;10.722;2023-08-08T12:50:57;16.70;1.00
14252;DHT22;7210;51.502;10.722;2023-08-08T12:53:25;16.60;1.00
14252;DHT22;7210;51.502;10.722;2023-08-08T12:55:52;16.50;1.00
14252;DHT22;7210;51.502;10.722;2023-08-08T12:58:19;16.70;1.00
14252;DHT22;7210;51.502;10.722;2023-08-08T13:00:57;16.90;1.00
14252;DHT22;7210;51.502;10.722;2023-08-08T13:03:26;17.00;1.00
14252;DHT22;7210;51.502;10.722;2023-08-08T13:05:53;17.20;1.00
14252;DHT22;7210;51.502;10.722;2023-08-08T13:08:20;17.50;1.00
14252;DHT22;7210;51.502;10.722;2023-08-08T13:10:48;17.80;1.00
14252;DHT22;7210;51.502;10.722;2023-08-08T13:13:15;18.00;1.00
14252;DHT22;7210;51.502;10.722;2023-08-08T13:15:42;18.20;1.00
14252;DHT22;7210;51.502;10.722;2023-08-08T13:18:11;18.30;1.00
14252;DHT22;7210;51.502;10.722;2023-08-08T13:20:39;18.30;1.00
14252;DHT22;7210;51.502;10.722;2023-08-08T13:23:07;18.20;1.00
14252;DHT22;7210;51.502;10.722;2023-08-08T13:25:34;18.10;1.00
14252;DHT22;7210;51.502;10.722;2023-08-08T13:28:02;18.20;1.00
14252;DHT22;7210;51.502;10.722;2023-08-08T13:30:30;18.40;1.00
14252;DHT22;7210;51.502;10.722;2023-08-08T13:32:57;18.50;1.00
14252;DHT22;7210;51.502;10.722;2023-08-08T13:35:24;18.50;1.00
14252;DHT22;7210;51.502;10.722;2023-08-08T13:37:53;18.40;1.00
14252;DHT22;7210;51.502;10.722;2023-08-08T13:40:21;18.30;1.00
14252;DHT22;7210;51.502;10.722;2023-08-08T13:42:48;18.50;1.00
14252;DHT22;7210;51.502;10.722;2023-08-08T13:45:16;18.20;1.00
14252;DHT22;7210;51.502;10.722;2023-08-08T13:47:44;18.20;1.00
14252;DHT22;7210;51.502;10.722;2023-08-08T13:50:13;18.30;1.00
14252;DHT22;7210;51.502;10.722;2023-08-08T13:52:40;18.40;1.00
14252;DHT22;7210;51.502;10.722;2023-08-08T13:55:09;18.30;1.00
14252;DHT22;7210;51.502;10.722;2023-08-08T13:57:37;18.30;1.00
14252;DHT22;7210;51.502;10.722;2023-08-08T14:00:05;18.10;1.00
14252;DHT22;7210;51.502;10.722;2023-08-08T14:02:39;18.20;1.00
14252;DHT22;7210;51.502;10.722;2023-08-08T14:05:08;18.20;1.00
14252;DHT22;7210;51.502;10.722;2023-08-08T14:07:36;18.30;1.00
14252;DHT22;7210;51.502;10.722;2023-08-08T14:10:04;18.20;1.00
14252;DHT22;7210;51.502;10.722;2023-08-08T14:12:36;18.10;1.00
14252;DHT22;7210;51.502;10.722;2023-08-08T14:15:05;18.00;1.00
14252;DHT22;7210;51.502;10.722;2023-08-08T14:17:34;17.70;1.00
14252;DHT22;7210;51.502;10.722;2023-08-08T14:20:02;17.60;1.00
14252;DHT22;7210;51.502;10.722;2023-08-08T14:22:33;17.40;1.00
14252;DHT22;7210;51.502;10.722;2023-08-08T14:25:01;17.10;1.00
14252;DHT22;7210;51.502;10.722;2023-08-08T14:27:29;17.10;1.00
14252;DHT22;7210;51.502;10.722;2023-08-08T14:29:58;17.20;1.00
14252;DHT22;7210;51.502;10.722;2023-08-08T14:32:25;17.30;1.00
14252;DHT22;7210;51.502;10.722;2023-08-08T14:34:53;17.60;1.00
14252;DHT22;7210;51.502;10.722;2023-08-08T14:37:22;17.80;1.00
14252;DHT22;7210;51.502;10.722;2023-08-08T14:39:51;17.90;1.00
14252;DHT22;7210;51.502;10.722;2023-08-08T14:42:20;17.80;1.00
14252;DHT22;7210;51.502;10.722;2023-08-08T14:44:47;17.70;1.00
14252;DHT22;7210;51.502;10.722;2023-08-08T14:47:16;17.70;1.00
14252;DHT22;7210;51.502;10.722;2023-08-08T14:49:43;17.70;1.00
14252;DHT22;7210;51.502;10.722;2023-08-08T14:52:11;17.60;1.00
14252;DHT22;7210;51.502;10.722;2023-08-08T14:54:38;17.40;1.00
14252;DHT22;7210;51.502;10.722;2023-08-08T14:57:08;17.50;1.00
14252;DHT22;7210;51.502;10.722;2023-08-08T14:59:45;17.40;1.00
14252;DHT22;7210;51.502;10.722;2023-08-08T15:02:13;17.30;1.00
14252;DHT22;7210;51.502;10.722;2023-08-08T15:04:42;17.40;1.00
14252;DHT22;7210;51.502;10.722;2023-08-08T15:07:09;17.40;1.00
14252;DHT22;7210;51.502;10.722;2023-08-08T15:09:36;17.40;1.00
14252;DHT22;7210;51.502;10.722;2023-08-08T15:12:05;17.50;1.00
14252;DHT22;7210;51.502;10.722;2023-08-08T15:14:32;17.40;1.00
14252;DHT22;7210;51.502;10.722;2023-08-08T15:17:00;17.60;1.00
14252;DHT22;7210;51.502;10.722;2023-08-08T15:19:27;17.80;1.00
14252;DHT22;7210;51.502;10.722;2023-08-08T15:21:56;18.00;1.00
14252;DHT22;7210;51.502;10.722;2023-08-08T15:24:23;18.20;1.00
14252;DHT22;7210;51.502;10.722;2023-08-08T15:26:52;18.20;1.00
14252;DHT22;7210;51.502;10.722;2023-08-08T15:29:19;18.20;1.00
14252;DHT22;7210;51.502;10.722;2023-08-08T15:31:47;18.00;1.00
14252;DHT22;7210;51.502;10.722;2023-08-08T15:34:14;18.00;1.00
14252;DHT22;7210;51.502;10.722;2023-08-08T15:36:42;18.00;1.00
14252;DHT22;7210;51.502;10.722;2023-08-08T15:39:11;18.00;1.00
14252;DHT22;7210;51.502;10.722;2023-08-08T15:41:39;18.00;1.00
14252;DHT22;7210;51.502;10.722;2023-08-08T15:44:09;18.10;1.00
14252;DHT22;7210;51.502;10.722;2023-08-08T15:46:37;18.10;1.00
14252;DHT22;7210;51.502;10.722;2023-08-08T15:49:05;18.10;1.00
14252;DHT22;7210;51.502;10.722;2023-08-08T15:51:46;18.10;1.00
14252;DHT22;7210;51.502;10.722;2023-08-08T15:54:14;18.30;1.00